sensor_id;sensor_type;location;lat;lon;timestamp;P1;durP1;ratioP1;P2;durP2;ratioP2
20251;SDS011;10284;58.364;15.550;2024-02-21T00:01:46;21.55;;;5.03;;
20251;SDS011;10284;58.364;15.550;2024-02-21T00:04:12;16.23;;;5.28;;
20251;SDS011;10284;58.364;15.550;2024-02-21T00:06:37;11.27;;;4.57;;
20251;SDS011;10284;58.364;15.550;2024-02-21T00:09:03;27.33;;;5.10;;
20251;SDS011;10284;58.364;15.550;2024-02-21T00:11:28;16.35;;;4.47;;
20251;SDS011;10284;58.364;15.550;2024-02-21T00:13:54;16.35;;;5.05;;
20251;SDS011;10284;58.364;15.550;2024-02-21T00:16:19;18.40;;;5.35;;
20251;SDS011;10284;58.364;15.550;2024-02-21T00:18:45;21.77;;;5.60;;
20251;SDS011;10284;58.364;15.550;2024-02-21T00:21:10;18.90;;;5.13;;
20251;SDS011;10284;58.364;15.550;2024-02-21T00:23:42;18.90;;;5.30;;
20251;SDS011;10284;58.364;15.550;2024-02-21T00:26:08;22.80;;;5.32;;
20251;SDS011;10284;58.364;15.550;2024-02-21T00:28:33;25.27;;;5.18;;
20251;SDS011;10284;58.364;15.550;2024-02-21T00:30:59;17.73;;;4.65;;
20251;SDS011;10284;58.364;15.550;2024-02-21T00:33:24;23.85;;;5.18;;
20251;SDS011;10284;58.364;15.550;2024-02-21T00:35:50;19.30;;;4.38;;
20251;SDS011;10284;58.364;15.550;2024-02-21T00:38:15;18.92;;;4.97;;
20251;SDS011;10284;58.364;15.550;2024-02-21T00:40:40;17.85;;;4.95;;
20251;SDS011;10284;58.364;15.550;2024-02-21T00:43:06;20.98;;;4.75;;
20251;SDS011;10284;58.364;15.550;2024-02-21T00:45:32;20.55;;;5.07;;
20251;SDS011;10284;58.364;15.550;2024-02-21T00:47:58;20.42;;;5.00;;
20251;SDS011;10284;58.364;15.550;2024-02-21T00:50:23;20.30;;;5.43;;
20251;SDS011;10284;58.364;15.550;2024-02-21T00:52:48;21.45;;;4.75;;
20251;SDS011;10284;58.364;15.550;2024-02-21T00:55:14;30.80;;;5.57;;
20251;SDS011;10284;58.364;15.550;2024-02-21T00:57:39;19.45;;;5.25;;
20251;SDS011;10284;58.364;15.550;2024-02-21T01:00:05;20.95;;;5.32;;
20251;SDS011;10284;58.364;15.550;2024-02-21T01:02:30;23.52;;;5.38;;
20251;SDS011;10284;58.364;15.550;2024-02-21T01:04:59;19.30;;;4.72;;
20251;SDS011;10284;58.364;15.550;2024-02-21T01:07:25;14.68;;;3.90;;
20251;SDS011;10284;58.364;15.550;2024-02-21T01:09:51;21.45;;;4.88;;
20251;SDS011;10284;58.364;15.550;2024-02-21T01:12:16;23.65;;;6.38;;
20251;SDS011;10284;58.364;15.550;2024-02-21T01:14:42;16.63;;;4.78;;
20251;SDS011;10284;58.364;15.550;2024-02-21T01:17:07;19.25;;;4.78;;
20251;SDS011;10284;58.364;15.550;2024-02-21T01:19:33;29.73;;;5.43;;
20251;SDS011;10284;58.364;15.550;2024-02-21T01:21:58;19.50;;;4.38;;
20251;SDS011;10284;58.364;15.550;2024-02-21T01:24:24;20.33;;;5.25;;
20251;SDS011;10284;58.364;15.550;2024-02-21T01:26:49;26.10;;;4.82;;
20251;SDS011;10284;58.364;15.550;2024-02-21T01:29:14;22.17;;;4.88;;
20251;SDS011;10284;58.364;15.550;2024-02-21T01:31:40;18.15;;;4.70;;
20251;SDS011;10284;58.364;15.550;2024-02-21T01:34:05;23.40;;;5.13;;
20251;SDS011;10284;58.364;15.550;2024-02-21T01:36:31;23.33;;;5.07;;
20251;SDS011;10284;58.364;15.550;2024-02-21T01:38:56;23.60;;;5.35;;
20251;SDS011;10284;58.364;15.550;2024-02-21T01:41:21;18.17;;;4.70;;
20251;SDS011;10284;58.364;15.550;2024-02-21T01:43:47;21.45;;;4.93;;
20251;SDS011;10284;58.364;15.550;2024-02-21T01:46:12;19.70;;;4.55;;
20251;SDS011;10284;58.364;15.550;2024-02-21T01:48:37;22.40;;;5.50;;
20251;SDS011;10284;58.364;15.550;2024-02-21T01:51:03;22.27;;;4.95;;
20251;SDS011;10284;58.364;15.550;2024-02-21T01:53:30;22.33;;;4.78;;
20251;SDS011;10284;58.364;15.550;2024-02-21T01:55:59;19.13;;;5.18;;
20251;SDS011;10284;58.364;15.550;2024-02-21T01:58:25;18.70;;;5.03;;
20251;SDS011;10284;58.364;15.550;2024-02-21T02:00:50;21.27;;;4.55;;
20251;SDS011;10284;58.364;15.550;2024-02-21T02:03:16;19.92;;;4.28;;
20251;SDS011;10284;58.364;15.550;2024-02-21T02:05:43;23.77;;;5.53;;
20251;SDS011;10284;58.364;15.550;2024-02-21T02:08:09;17.95;;;4.30;;
20251;SDS011;10284;58.364;15.550;2024-02-21T02:10:34;17.00;;;4.32;;
20251;SDS011;10284;58.364;15.550;2024-02-21T02:13:00;16.75;;;4.80;;
20251;SDS011;10284;58.364;15.550;2024-02-21T02:15:25;22.85;;;4.65;;
20251;SDS011;10284;58.364;15.550;2024-02-21T02:17:50;16.02;;;4.72;;
20251;SDS011;10284;58.364;15.550;2024-02-21T02:20:16;19.55;;;4.75;;
20251;SDS011;10284;58.364;15.550;2024-02-21T02:22:41;23.13;;;4.63;;
20251;SDS011;10284;58.364;15.550;2024-02-21T02:25:08;17.77;;;4.72;;
20251;SDS011;10284;58.364;15.550;2024-02-21T02:27:41;14.15;;;4.75;;
20251;SDS011;10284;58.364;15.550;2024-02-21T02:30:08;18.83;;;4.50;;
20251;SDS011;10284;58.364;15.550;2024-02-21T02:32:34;18.77;;;5.05;;
20251;SDS011;10284;58.364;15.550;2024-02-21T02:34:59;14.55;;;4.88;;
20251;SDS011;10284;58.364;15.550;2024-02-21T02:37:24;22.83;;;4.57;;
20251;SDS011;10284;58.364;15.550;2024-02-21T02:39:50;19.60;;;4.50;;
20251;SDS011;10284;58.364;15.550;2024-02-21T02:42:15;20.90;;;4.47;;
20251;SDS011;10284;58.364;15.550;2024-02-21T02:44:40;22.17;;;4.40;;
20251;SDS011;10284;58.364;15.550;2024-02-21T02:47:06;25.05;;;5.18;;
20251;SDS011;10284;58.364;15.550;2024-02-21T02:49:31;24.30;;;4.75;;
20251;SDS011;10284;58.364;15.550;2024-02-21T02:51:56;19.52;;;4.85;;
20251;SDS011;10284;58.364;15.550;2024-02-21T02:54:22;22.77;;;5.45;;
20251;SDS011;10284;58.364;15.550;2024-02-21T02:56:47;26.42;;;5.35;;
20251;SDS011;10284;58.364;15.550;2024-02-21T02:59:12;22.85;;;4.70;;
20251;SDS011;10284;58.364;15.550;2024-02-21T03:01:38;20.85;;;4.28;;
20251;SDS011;10284;58.364;15.550;2024-02-21T03:04:03;25.65;;;4.93;;
20251;SDS011;10284;58.364;15.550;2024-02-21T03:06:29;22.70;;;5.18;;
20251;SDS011;10284;58.364;15.550;2024-02-21T03:08:54;20.15;;;4.13;;
20251;SDS011;10284;58.364;15.550;2024-02-21T03:11:20;21.50;;;4.85;;
20251;SDS011;10284;58.364;15.550;2024-02-21T03:13:46;21.63;;;4.70;;
20251;SDS011;10284;58.364;15.550;2024-02-21T03:16:11;18.70;;;4.78;;
20251;SDS011;10284;58.364;15.550;2024-02-21T03:18:36;19.52;;;4.75;;
20251;SDS011;10284;58.364;15.550;2024-02-21T03:21:02;22.63;;;5.13;;
20251;SDS011;10284;58.364;15.550;2024-02-21T03:23:27;15.93;;;4.35;;
20251;SDS011;10284;58.364;15.550;2024-02-21T03:25:53;21.67;;;5.47;;
20251;SDS011;10284;58.364;15.550;2024-02-21T03:28:18;15.13;;;3.70;;
20251;SDS011;10284;58.364;15.550;2024-02-21T03:30:43;18.42;;;4.40;;
20251;SDS011;10284;58.364;15.550;2024-02-21T03:33:09;17.58;;;4.75;;
20251;SDS011;10284;58.364;15.550;2024-02-21T03:35:34;20.17;;;4.53;;
20251;SDS011;10284;58.364;15.550;2024-02-21T03:38:00;19.92;;;4.45;;
20251;SDS011;10284;58.364;15.550;2024-02-21T03:40:25;12.77;;;4.05;;
20251;SDS011;10284;58.364;15.550;2024-02-21T03:42:50;15.35;;;4.13;;
20251;SDS011;10284;58.364;15.550;2024-02-21T03:45:16;16.00;;;4.00;;
20251;SDS011;10284;58.364;15.550;2024-02-21T03:47:41;15.10;;;3.95;;
20251;SDS011;10284;58.364;15.550;2024-02-21T03:50:07;18.17;;;4.03;;
20251;SDS011;10284;58.364;15.550;2024-02-21T03:52:32;19.48;;;3.78;;
20251;SDS011;10284;58.364;15.550;2024-02-21T03:54:58;12.40;;;3.22;;
20251;SDS011;10284;58.364;15.550;2024-02-21T03:57:23;15.88;;;4.35;;
20251;SDS011;10284;58.364;15.550;2024-02-21T03:59:51;15.13;;;3.88;;
20251;SDS011;10284;58.364;15.550;2024-02-21T04:02:17;16.33;;;4.03;;
20251;SDS011;10284;58.364;15.550;2024-02-21T04:04:43;14.70;;;3.78;;
20251;SDS011;10284;58.364;15.550;2024-02-21T04:07:11;13.70;;;3.92;;
20251;SDS011;10284;58.364;15.550;2024-02-21T04:09:37;13.75;;;4.00;;
20251;SDS011;10284;58.364;15.550;2024-02-21T04:12:02;17.02;;;4.00;;
20251;SDS011;10284;58.364;15.550;2024-02-21T04:14:28;14.23;;;4.40;;
20251;SDS011;10284;58.364;15.550;2024-02-21T04:16:53;17.33;;;3.80;;
20251;SDS011;10284;58.364;15.550;2024-02-21T04:19:19;18.08;;;3.53;;
20251;SDS011;10284;58.364;15.550;2024-02-21T04:21:44;13.90;;;3.95;;
20251;SDS011;10284;58.364;15.550;2024-02-21T04:24:09;14.68;;;3.92;;
20251;SDS011;10284;58.364;15.550;2024-02-21T04:26:35;17.90;;;4.18;;
20251;SDS011;10284;58.364;15.550;2024-02-21T04:29:00;21.65;;;4.10;;
20251;SDS011;10284;58.364;15.550;2024-02-21T04:31:25;13.73;;;3.97;;
20251;SDS011;10284;58.364;15.550;2024-02-21T04:33:51;14.65;;;3.90;;
20251;SDS011;10284;58.364;15.550;2024-02-21T04:36:16;14.57;;;3.53;;
20251;SDS011;10284;58.364;15.550;2024-02-21T04:38:42;15.38;;;4.13;;
20251;SDS011;10284;58.364;15.550;2024-02-21T04:41:07;16.45;;;3.80;;
20251;SDS011;10284;58.364;15.550;2024-02-21T04:43:33;13.68;;;3.63;;
20251;SDS011;10284;58.364;15.550;2024-02-21T04:45:58;13.57;;;4.15;;
20251;SDS011;10284;58.364;15.550;2024-02-21T04:48:23;18.33;;;4.20;;
20251;SDS011;10284;58.364;15.550;2024-02-21T04:50:49;16.55;;;4.50;;
20251;SDS011;10284;58.364;15.550;2024-02-21T04:53:14;13.80;;;3.63;;
20251;SDS011;10284;58.364;15.550;2024-02-21T04:55:40;17.95;;;3.97;;
20251;SDS011;10284;58.364;15.550;2024-02-21T04:58:05;13.77;;;4.35;;
20251;SDS011;10284;58.364;15.550;2024-02-21T05:00:30;15.50;;;4.07;;
20251;SDS011;10284;58.364;15.550;2024-02-21T05:02:56;17.23;;;4.18;;
20251;SDS011;10284;58.364;15.550;2024-02-21T05:05:21;16.05;;;4.13;;
20251;SDS011;10284;58.364;15.550;2024-02-21T05:07:46;18.02;;;4.50;;
20251;SDS011;10284;58.364;15.550;2024-02-21T05:10:12;13.07;;;3.90;;
20251;SDS011;10284;58.364;15.550;2024-02-21T05:12:37;13.55;;;3.75;;
20251;SDS011;10284;58.364;15.550;2024-02-21T05:15:03;14.52;;;4.35;;
20251;SDS011;10284;58.364;15.550;2024-02-21T05:17:28;16.70;;;4.10;;
20251;SDS011;10284;58.364;15.550;2024-02-21T05:19:54;15.18;;;3.58;;
20251;SDS011;10284;58.364;15.550;2024-02-21T05:22:19;13.55;;;3.90;;
20251;SDS011;10284;58.364;15.550;2024-02-21T05:24:45;15.68;;;4.00;;
20251;SDS011;10284;58.364;15.550;2024-02-21T05:27:10;16.63;;;4.13;;
20251;SDS011;10284;58.364;15.550;2024-02-21T05:29:35;18.15;;;4.43;;
20251;SDS011;10284;58.364;15.550;2024-02-21T05:32:01;18.42;;;4.85;;
20251;SDS011;10284;58.364;15.550;2024-02-21T05:34:27;12.05;;;3.83;;
20251;SDS011;10284;58.364;15.550;2024-02-21T05:36:52;12.32;;;3.78;;
20251;SDS011;10284;58.364;15.550;2024-02-21T05:39:18;17.38;;;4.78;;
20251;SDS011;10284;58.364;15.550;2024-02-21T05:41:43;16.35;;;4.50;;
20251;SDS011;10284;58.364;15.550;2024-02-21T05:44:09;13.30;;;3.90;;
20251;SDS011;10284;58.364;15.550;2024-02-21T05:46:35;15.70;;;4.40;;
20251;SDS011;10284;58.364;15.550;2024-02-21T05:49:00;14.57;;;4.68;;
20251;SDS011;10284;58.364;15.550;2024-02-21T05:51:26;13.82;;;4.60;;
20251;SDS011;10284;58.364;15.550;2024-02-21T05:53:51;8.68;;;4.38;;
20251;SDS011;10284;58.364;15.550;2024-02-21T05:56:17;13.45;;;4.25;;
20251;SDS011;10284;58.364;15.550;2024-02-21T05:58:43;17.23;;;4.00;;
20251;SDS011;10284;58.364;15.550;2024-02-21T06:01:08;9.85;;;3.90;;
20251;SDS011;10284;58.364;15.550;2024-02-21T06:03:34;12.90;;;3.88;;
20251;SDS011;10284;58.364;15.550;2024-02-21T06:05:59;16.90;;;4.53;;
20251;SDS011;10284;58.364;15.550;2024-02-21T06:08:25;13.27;;;4.43;;
20251;SDS011;10284;58.364;15.550;2024-02-21T06:10:51;14.38;;;4.32;;
20251;SDS011;10284;58.364;15.550;2024-02-21T06:13:23;18.33;;;4.40;;
20251;SDS011;10284;58.364;15.550;2024-02-21T06:15:48;10.77;;;4.32;;
20251;SDS011;10284;58.364;15.550;2024-02-21T06:18:15;14.00;;;4.10;;
20251;SDS011;10284;58.364;15.550;2024-02-21T06:20:44;16.60;;;4.60;;
20251;SDS011;10284;58.364;15.550;2024-02-21T06:23:09;16.40;;;4.35;;
20251;SDS011;10284;58.364;15.550;2024-02-21T06:25:35;14.95;;;4.78;;
20251;SDS011;10284;58.364;15.550;2024-02-21T06:28:00;11.90;;;4.30;;
20251;SDS011;10284;58.364;15.550;2024-02-21T06:30:25;13.10;;;4.80;;
20251;SDS011;10284;58.364;15.550;2024-02-21T06:32:51;13.13;;;4.47;;
20251;SDS011;10284;58.364;15.550;2024-02-21T06:35:17;14.00;;;4.60;;
20251;SDS011;10284;58.364;15.550;2024-02-21T06:37:42;14.02;;;6.03;;
20251;SDS011;10284;58.364;15.550;2024-02-21T06:40:10;16.17;;;5.03;;
20251;SDS011;10284;58.364;15.550;2024-02-21T06:42:35;14.35;;;5.45;;
20251;SDS011;10284;58.364;15.550;2024-02-21T06:45:01;13.82;;;4.65;;
20251;SDS011;10284;58.364;15.550;2024-02-21T06:47:26;13.82;;;4.97;;
20251;SDS011;10284;58.364;15.550;2024-02-21T06:49:51;19.92;;;5.47;;
20251;SDS011;10284;58.364;15.550;2024-02-21T06:52:17;7.47;;;4.40;;
20251;SDS011;10284;58.364;15.550;2024-02-21T06:54:45;15.00;;;4.85;;
20251;SDS011;10284;58.364;15.550;2024-02-21T06:57:11;15.63;;;4.78;;
20251;SDS011;10284;58.364;15.550;2024-02-21T06:59:37;13.40;;;5.07;;
20251;SDS011;10284;58.364;15.550;2024-02-21T07:02:02;8.55;;;4.63;;
20251;SDS011;10284;58.364;15.550;2024-02-21T07:04:28;14.32;;;4.97;;
20251;SDS011;10284;58.364;15.550;2024-02-21T07:06:54;13.48;;;5.22;;
20251;SDS011;10284;58.364;15.550;2024-02-21T07:09:19;12.35;;;4.70;;
20251;SDS011;10284;58.364;15.550;2024-02-21T07:11:45;15.82;;;4.90;;
20251;SDS011;10284;58.364;15.550;2024-02-21T07:14:10;9.23;;;5.03;;
20251;SDS011;10284;58.364;15.550;2024-02-21T07:16:35;12.27;;;4.68;;
20251;SDS011;10284;58.364;15.550;2024-02-21T07:19:01;14.65;;;4.43;;
20251;SDS011;10284;58.364;15.550;2024-02-21T07:21:27;8.45;;;3.83;;
20251;SDS011;10284;58.364;15.550;2024-02-21T07:23:53;10.30;;;3.78;;
20251;SDS011;10284;58.364;15.550;2024-02-21T07:26:18;8.30;;;3.80;;
20251;SDS011;10284;58.364;15.550;2024-02-21T07:28:43;9.00;;;4.47;;
20251;SDS011;10284;58.364;15.550;2024-02-21T07:31:09;11.00;;;4.22;;
20251;SDS011;10284;58.364;15.550;2024-02-21T07:33:34;12.07;;;4.63;;
20251;SDS011;10284;58.364;15.550;2024-02-21T07:36:00;12.25;;;4.40;;
20251;SDS011;10284;58.364;15.550;2024-02-21T07:38:26;8.98;;;3.78;;
20251;SDS011;10284;58.364;15.550;2024-02-21T07:40:51;6.47;;;3.97;;
20251;SDS011;10284;58.364;15.550;2024-02-21T07:43:17;14.05;;;4.18;;
20251;SDS011;10284;58.364;15.550;2024-02-21T07:45:42;9.48;;;3.83;;
20251;SDS011;10284;58.364;15.550;2024-02-21T07:48:07;7.30;;;3.58;;
20251;SDS011;10284;58.364;15.550;2024-02-21T07:50:33;6.22;;;3.42;;
20251;SDS011;10284;58.364;15.550;2024-02-21T07:52:58;8.23;;;3.58;;
20251;SDS011;10284;58.364;15.550;2024-02-21T07:55:24;12.30;;;3.80;;
20251;SDS011;10284;58.364;15.550;2024-02-21T07:57:49;6.45;;;3.55;;
20251;SDS011;10284;58.364;15.550;2024-02-21T08:00:15;7.03;;;3.50;;
20251;SDS011;10284;58.364;15.550;2024-02-21T08:02:45;5.45;;;3.20;;
20251;SDS011;10284;58.364;15.550;2024-02-21T08:05:11;4.30;;;3.17;;
20251;SDS011;10284;58.364;15.550;2024-02-21T08:07:37;6.10;;;3.40;;
20251;SDS011;10284;58.364;15.550;2024-02-21T08:10:03;6.03;;;3.45;;
20251;SDS011;10284;58.364;15.550;2024-02-21T08:12:29;6.75;;;3.42;;
20251;SDS011;10284;58.364;15.550;2024-02-21T08:14:54;5.57;;;3.33;;
20251;SDS011;10284;58.364;15.550;2024-02-21T08:17:20;6.65;;;2.90;;
20251;SDS011;10284;58.364;15.550;2024-02-21T08:19:45;5.00;;;3.05;;
20251;SDS011;10284;58.364;15.550;2024-02-21T08:22:11;5.97;;;2.90;;
20251;SDS011;10284;58.364;15.550;2024-02-21T08:24:36;5.45;;;2.25;;
20251;SDS011;10284;58.364;15.550;2024-02-21T08:27:01;3.75;;;2.40;;
20251;SDS011;10284;58.364;15.550;2024-02-21T08:29:27;5.25;;;2.60;;
20251;SDS011;10284;58.364;15.550;2024-02-21T08:31:53;3.83;;;2.35;;
20251;SDS011;10284;58.364;15.550;2024-02-21T08:34:18;3.33;;;2.15;;
20251;SDS011;10284;58.364;15.550;2024-02-21T08:36:44;3.90;;;2.20;;
20251;SDS011;10284;58.364;15.550;2024-02-21T08:39:09;5.63;;;2.20;;
20251;SDS011;10284;58.364;15.550;2024-02-21T08:41:34;3.45;;;2.03;;
20251;SDS011;10284;58.364;15.550;2024-02-21T08:44:00;3.42;;;2.00;;
20251;SDS011;10284;58.364;15.550;2024-02-21T08:46:26;3.60;;;1.70;;
20251;SDS011;10284;58.364;15.550;2024-02-21T08:48:52;3.00;;;1.52;;
20251;SDS011;10284;58.364;15.550;2024-02-21T08:51:18;2.13;;;1.58;;
20251;SDS011;10284;58.364;15.550;2024-02-21T08:53:43;4.07;;;1.60;;
20251;SDS011;10284;58.364;15.550;2024-02-21T08:56:09;1.90;;;1.35;;
20251;SDS011;10284;58.364;15.550;2024-02-21T08:58:35;7.00;;;1.70;;
20251;SDS011;10284;58.364;15.550;2024-02-21T09:01:02;1.63;;;1.45;;
20251;SDS011;10284;58.364;15.550;2024-02-21T09:03:30;4.63;;;1.80;;
20251;SDS011;10284;58.364;15.550;2024-02-21T09:05:56;3.00;;;1.90;;
20251;SDS011;10284;58.364;15.550;2024-02-21T09:08:22;3.03;;;1.80;;
20251;SDS011;10284;58.364;15.550;2024-02-21T09:10:49;2.78;;;1.98;;
20251;SDS011;10284;58.364;15.550;2024-02-21T09:13:14;2.55;;;2.00;;
20251;SDS011;10284;58.364;15.550;2024-02-21T09:15:40;3.72;;;1.90;;
20251;SDS011;10284;58.364;15.550;2024-02-21T09:18:05;6.45;;;2.00;;
20251;SDS011;10284;58.364;15.550;2024-02-21T09:20:31;2.30;;;1.98;;
20251;SDS011;10284;58.364;15.550;2024-02-21T09:22:57;3.22;;;1.83;;
20251;SDS011;10284;58.364;15.550;2024-02-21T09:25:22;4.05;;;1.83;;
20251;SDS011;10284;58.364;15.550;2024-02-21T09:27:47;2.72;;;1.50;;
20251;SDS011;10284;58.364;15.550;2024-02-21T09:30:13;2.08;;;1.55;;
20251;SDS011;10284;58.364;15.550;2024-02-21T09:32:38;2.40;;;1.65;;
20251;SDS011;10284;58.364;15.550;2024-02-21T09:35:04;4.07;;;1.63;;
20251;SDS011;10284;58.364;15.550;2024-02-21T09:37:32;2.20;;;1.50;;
20251;SDS011;10284;58.364;15.550;2024-02-21T09:39:58;3.05;;;1.90;;
20251;SDS011;10284;58.364;15.550;2024-02-21T09:42:26;2.67;;;1.85;;
20251;SDS011;10284;58.364;15.550;2024-02-21T09:45:03;2.90;;;1.50;;
20251;SDS011;10284;58.364;15.550;2024-02-21T09:47:32;2.70;;;1.55;;
20251;SDS011;10284;58.364;15.550;2024-02-21T09:50:04;1.80;;;1.60;;
20251;SDS011;10284;58.364;15.550;2024-02-21T09:52:30;1.33;;;1.23;;
20251;SDS011;10284;58.364;15.550;2024-02-21T09:54:55;4.07;;;1.80;;
20251;SDS011;10284;58.364;15.550;2024-02-21T09:57:22;2.47;;;1.73;;
20251;SDS011;10284;58.364;15.550;2024-02-21T09:59:48;2.25;;;1.58;;
20251;SDS011;10284;58.364;15.550;2024-02-21T10:02:15;1.65;;;1.40;;
20251;SDS011;10284;58.364;15.550;2024-02-21T10:04:40;3.67;;;1.40;;
20251;SDS011;10284;58.364;15.550;2024-02-21T10:07:06;2.20;;;1.38;;
20251;SDS011;10284;58.364;15.550;2024-02-21T10:09:32;2.53;;;1.50;;
20251;SDS011;10284;58.364;15.550;2024-02-21T10:12:23;1.33;;;1.23;;
20251;SDS011;10284;58.364;15.550;2024-02-21T10:14:48;1.75;;;1.40;;
20251;SDS011;10284;58.364;15.550;2024-02-21T10:17:17;2.35;;;1.50;;
20251;SDS011;10284;58.364;15.550;2024-02-21T10:19:44;3.63;;;1.40;;
20251;SDS011;10284;58.364;15.550;2024-02-21T10:22:09;1.67;;;1.58;;
20251;SDS011;10284;58.364;15.550;2024-02-21T10:24:35;1.30;;;1.20;;
20251;SDS011;10284;58.364;15.550;2024-02-21T10:27:04;1.52;;;1.13;;
20251;SDS011;10284;58.364;15.550;2024-02-21T10:29:33;1.17;;;0.77;;
20251;SDS011;10284;58.364;15.550;2024-02-21T10:32:08;1.45;;;0.90;;
20251;SDS011;10284;58.364;15.550;2024-02-21T10:34:35;0.85;;;0.77;;
20251;SDS011;10284;58.364;15.550;2024-02-21T10:37:02;1.40;;;0.90;;
20251;SDS011;10284;58.364;15.550;2024-02-21T10:39:28;1.38;;;0.70;;
20251;SDS011;10284;58.364;15.550;2024-02-21T10:41:55;1.27;;;0.70;;
20251;SDS011;10284;58.364;15.550;2024-02-21T10:44:29;0.85;;;0.80;;
20251;SDS011;10284;58.364;15.550;2024-02-21T10:46:56;0.57;;;0.57;;
20251;SDS011;10284;58.364;15.550;2024-02-21T10:49:25;1.85;;;0.70;;
20251;SDS011;10284;58.364;15.550;2024-02-21T10:52:06;1.00;;;0.80;;
20251;SDS011;10284;58.364;15.550;2024-02-21T10:54:39;0.50;;;0.50;;
20251;SDS011;10284;58.364;15.550;2024-02-21T10:57:21;0.82;;;0.80;;
20251;SDS011;10284;58.364;15.550;2024-02-21T10:59:47;1.60;;;0.90;;
20251;SDS011;10284;58.364;15.550;2024-02-21T11:02:13;0.65;;;0.65;;
20251;SDS011;10284;58.364;15.550;2024-02-21T11:04:39;1.60;;;1.02;;
20251;SDS011;10284;58.364;15.550;2024-02-21T11:07:05;0.90;;;0.90;;
20251;SDS011;10284;58.364;15.550;2024-02-21T11:09:31;1.08;;;1.00;;
20251;SDS011;10284;58.364;15.550;2024-02-21T11:12:03;0.85;;;0.80;;
20251;SDS011;10284;58.364;15.550;2024-02-21T11:14:30;1.10;;;0.90;;
20251;SDS011;10284;58.364;15.550;2024-02-21T11:17:13;1.50;;;1.10;;
20251;SDS011;10284;58.364;15.550;2024-02-21T11:19:40;0.80;;;0.80;;
20251;SDS011;10284;58.364;15.550;2024-02-21T11:22:05;1.33;;;1.10;;
20251;SDS011;10284;58.364;15.550;2024-02-21T11:24:39;4.35;;;1.30;;
20251;SDS011;10284;58.364;15.550;2024-02-21T11:27:20;1.10;;;1.05;;
20251;SDS011;10284;58.364;15.550;2024-02-21T11:29:54;1.60;;;1.50;;
20251;SDS011;10284;58.364;15.550;2024-02-21T11:32:20;1.95;;;1.30;;
20251;SDS011;10284;58.364;15.550;2024-02-21T11:35:19;1.80;;;1.10;;
20251;SDS011;10284;58.364;15.550;2024-02-21T11:37:44;1.92;;;0.93;;
20251;SDS011;10284;58.364;15.550;2024-02-21T11:40:11;1.25;;;1.00;;
20251;SDS011;10284;58.364;15.550;2024-02-21T11:42:37;1.10;;;1.00;;
20251;SDS011;10284;58.364;15.550;2024-02-21T11:45:02;1.02;;;0.93;;
20251;SDS011;10284;58.364;15.550;2024-02-21T11:47:28;1.10;;;0.90;;
20251;SDS011;10284;58.364;15.550;2024-02-21T11:49:54;0.70;;;0.70;;
20251;SDS011;10284;58.364;15.550;2024-02-21T11:52:22;1.02;;;0.80;;
20251;SDS011;10284;58.364;15.550;2024-02-21T11:54:51;0.70;;;0.70;;
20251;SDS011;10284;58.364;15.550;2024-02-21T11:57:17;1.42;;;0.80;;
20251;SDS011;10284;58.364;15.550;2024-02-21T11:59:46;0.77;;;0.77;;
20251;SDS011;10284;58.364;15.550;2024-02-21T12:02:12;0.88;;;0.70;;
20251;SDS011;10284;58.364;15.550;2024-02-21T12:04:39;0.68;;;0.68;;
20251;SDS011;10284;58.364;15.550;2024-02-21T12:07:04;0.52;;;0.52;;
20251;SDS011;10284;58.364;15.550;2024-02-21T12:09:30;0.55;;;0.55;;
20251;SDS011;10284;58.364;15.550;2024-02-21T12:11:59;0.70;;;0.70;;
20251;SDS011;10284;58.364;15.550;2024-02-21T12:14:25;0.75;;;0.75;;
20251;SDS011;10284;58.364;15.550;2024-02-21T12:16:54;0.60;;;0.60;;
20251;SDS011;10284;58.364;15.550;2024-02-21T12:19:19;2.58;;;0.95;;
20251;SDS011;10284;58.364;15.550;2024-02-21T12:21:45;3.85;;;0.95;;
20251;SDS011;10284;58.364;15.550;2024-02-21T12:24:11;0.90;;;0.90;;
20251;SDS011;10284;58.364;15.550;2024-02-21T12:26:40;0.70;;;0.70;;
20251;SDS011;10284;58.364;15.550;2024-02-21T12:29:06;0.70;;;0.70;;
20251;SDS011;10284;58.364;15.550;2024-02-21T12:31:32;0.85;;;0.70;;
20251;SDS011;10284;58.364;15.550;2024-02-21T12:33:57;2.15;;;0.80;;
20251;SDS011;10284;58.364;15.550;2024-02-21T12:36:22;0.70;;;0.70;;
20251;SDS011;10284;58.364;15.550;2024-02-21T12:38:48;0.60;;;0.60;;
20251;SDS011;10284;58.364;15.550;2024-02-21T12:41:14;0.57;;;0.50;;
20251;SDS011;10284;58.364;15.550;2024-02-21T12:43:40;2.80;;;0.77;;
20251;SDS011;10284;58.364;15.550;2024-02-21T12:46:06;0.75;;;0.55;;
20251;SDS011;10284;58.364;15.550;2024-02-21T12:48:32;0.50;;;0.50;;
20251;SDS011;10284;58.364;15.550;2024-02-21T12:50:58;0.52;;;0.50;;
20251;SDS011;10284;58.364;15.550;2024-02-21T12:53:23;0.57;;;0.57;;
20251;SDS011;10284;58.364;15.550;2024-02-21T12:55:49;1.67;;;0.60;;
20251;SDS011;10284;58.364;15.550;2024-02-21T12:58:15;0.63;;;0.63;;
20251;SDS011;10284;58.364;15.550;2024-02-21T13:00:41;0.52;;;0.52;;
20251;SDS011;10284;58.364;15.550;2024-02-21T13:03:06;1.65;;;0.45;;
20251;SDS011;10284;58.364;15.550;2024-02-21T13:05:32;0.45;;;0.45;;
20251;SDS011;10284;58.364;15.550;2024-02-21T13:07:58;0.60;;;0.60;;
20251;SDS011;10284;58.364;15.550;2024-02-21T13:10:23;0.63;;;0.60;;
20251;SDS011;10284;58.364;15.550;2024-02-21T13:12:49;0.98;;;0.45;;
20251;SDS011;10284;58.364;15.550;2024-02-21T13:15:15;0.85;;;0.50;;
20251;SDS011;10284;58.364;15.550;2024-02-21T13:17:42;0.60;;;0.60;;
20251;SDS011;10284;58.364;15.550;2024-02-21T13:20:09;1.55;;;0.70;;
20251;SDS011;10284;58.364;15.550;2024-02-21T13:22:35;0.50;;;0.50;;
20251;SDS011;10284;58.364;15.550;2024-02-21T13:25:01;0.68;;;0.68;;
20251;SDS011;10284;58.364;15.550;2024-02-21T13:27:26;0.75;;;0.70;;
20251;SDS011;10284;58.364;15.550;2024-02-21T13:29:52;0.60;;;0.60;;
20251;SDS011;10284;58.364;15.550;2024-02-21T13:32:18;0.63;;;0.50;;
20251;SDS011;10284;58.364;15.550;2024-02-21T13:34:43;1.55;;;0.60;;
20251;SDS011;10284;58.364;15.550;2024-02-21T13:37:09;0.50;;;0.50;;
20251;SDS011;10284;58.364;15.550;2024-02-21T13:39:35;0.40;;;0.40;;
20251;SDS011;10284;58.364;15.550;2024-02-21T13:42:01;0.50;;;0.50;;
20251;SDS011;10284;58.364;15.550;2024-02-21T13:44:26;0.47;;;0.47;;
20251;SDS011;10284;58.364;15.550;2024-02-21T13:46:52;0.50;;;0.50;;
20251;SDS011;10284;58.364;15.550;2024-02-21T13:49:17;0.40;;;0.40;;
20251;SDS011;10284;58.364;15.550;2024-02-21T13:51:42;0.63;;;0.63;;
20251;SDS011;10284;58.364;15.550;2024-02-21T13:54:09;0.52;;;0.52;;
20251;SDS011;10284;58.364;15.550;2024-02-21T13:56:36;1.95;;;0.60;;
20251;SDS011;10284;58.364;15.550;2024-02-21T13:59:02;1.27;;;0.75;;
20251;SDS011;10284;58.364;15.550;2024-02-21T14:01:27;0.70;;;0.70;;
20251;SDS011;10284;58.364;15.550;2024-02-21T14:03:56;0.63;;;0.60;;
20251;SDS011;10284;58.364;15.550;2024-02-21T14:06:22;0.70;;;0.70;;
20251;SDS011;10284;58.364;15.550;2024-02-21T14:08:47;1.00;;;0.52;;
20251;SDS011;10284;58.364;15.550;2024-02-21T14:11:12;0.60;;;0.60;;
20251;SDS011;10284;58.364;15.550;2024-02-21T14:13:39;0.60;;;0.60;;
20251;SDS011;10284;58.364;15.550;2024-02-21T14:16:09;0.43;;;0.43;;
20251;SDS011;10284;58.364;15.550;2024-02-21T14:18:36;0.50;;;0.50;;
20251;SDS011;10284;58.364;15.550;2024-02-21T14:21:03;1.15;;;0.60;;
20251;SDS011;10284;58.364;15.550;2024-02-21T14:23:28;0.60;;;0.60;;